sensor_id;sensor_type;location;lat;lon;timestamp;P1;durP1;ratioP1;P2;durP2;ratioP2
27959;SDS011;15299;48.184;-1.916;2022-09-09T00:00:19;20.25;;;3.13;;
27959;SDS011;15299;48.184;-1.916;2022-09-09T00:02:50;19.23;;;4.05;;
27959;SDS011;15299;48.184;-1.916;2022-09-09T00:05:23;14.52;;;3.10;;
27959;SDS011;15299;48.184;-1.916;2022-09-09T00:07:54;22.60;;;3.95;;
27959;SDS011;15299;48.184;-1.916;2022-09-09T00:10:23;20.40;;;4.10;;
27959;SDS011;15299;48.184;-1.916;2022-09-09T00:12:55;24.15;;;4.35;;
27959;SDS011;15299;48.184;-1.916;2022-09-09T00:15:28;15.38;;;3.38;;
27959;SDS011;15299;48.184;-1.916;2022-09-09T00:18:01;19.50;;;3.80;;
27959;SDS011;15299;48.184;-1.916;2022-09-09T00:20:32;25.65;;;3.88;;
27959;SDS011;15299;48.184;-1.916;2022-09-09T00:23:00;13.63;;;3.70;;
27959;SDS011;15299;48.184;-1.916;2022-09-09T00:25:33;26.85;;;5.18;;
27959;SDS011;15299;48.184;-1.916;2022-09-09T00:28:02;22.42;;;3.70;;
27959;SDS011;15299;48.184;-1.916;2022-09-09T00:30:31;16.35;;;3.63;;
27959;SDS011;15299;48.184;-1.916;2022-09-09T00:33:01;18.27;;;3.20;;
27959;SDS011;15299;48.184;-1.916;2022-09-09T00:35:29;15.85;;;3.63;;
27959;SDS011;15299;48.184;-1.916;2022-09-09T00:38:00;18.40;;;3.95;;
27959;SDS011;15299;48.184;-1.916;2022-09-09T00:40:29;27.92;;;5.25;;
27959;SDS011;15299;48.184;-1.916;2022-09-09T00:43:04;23.30;;;3.95;;
27959;SDS011;15299;48.184;-1.916;2022-09-09T00:45:45;18.90;;;3.80;;
27959;SDS011;15299;48.184;-1.916;2022-09-09T00:48:15;19.15;;;3.95;;
27959;SDS011;15299;48.184;-1.916;2022-09-09T00:50:45;16.25;;;3.28;;
27959;SDS011;15299;48.184;-1.916;2022-09-09T00:53:27;20.25;;;3.72;;
27959;SDS011;15299;48.184;-1.916;2022-09-09T00:55:58;13.80;;;3.03;;
27959;SDS011;15299;48.184;-1.916;2022-09-09T00:58:28;19.97;;;2.93;;
27959;SDS011;15299;48.184;-1.916;2022-09-09T01:00:57;24.13;;;3.03;;
27959;SDS011;15299;48.184;-1.916;2022-09-09T01:03:33;17.52;;;3.50;;
27959;SDS011;15299;48.184;-1.916;2022-09-09T01:06:02;16.65;;;3.30;;
27959;SDS011;15299;48.184;-1.916;2022-09-09T01:11:20;21.23;;;3.58;;
27959;SDS011;15299;48.184;-1.916;2022-09-09T01:13:56;26.73;;;3.97;;
27959;SDS011;15299;48.184;-1.916;2022-09-09T01:16:29;20.40;;;4.07;;
27959;SDS011;15299;48.184;-1.916;2022-09-09T01:18:57;23.33;;;3.95;;
27959;SDS011;15299;48.184;-1.916;2022-09-09T01:21:30;15.82;;;2.92;;
27959;SDS011;15299;48.184;-1.916;2022-09-09T01:24:04;13.23;;;2.45;;
27959;SDS011;15299;48.184;-1.916;2022-09-09T01:26:53;20.48;;;3.63;;
27959;SDS011;15299;48.184;-1.916;2022-09-09T01:29:25;11.90;;;3.10;;
27959;SDS011;15299;48.184;-1.916;2022-09-09T01:31:55;13.45;;;3.33;;
27959;SDS011;15299;48.184;-1.916;2022-09-09T01:34:28;18.08;;;2.80;;
27959;SDS011;15299;48.184;-1.916;2022-09-09T01:36:57;16.57;;;3.37;;
27959;SDS011;15299;48.184;-1.916;2022-09-09T01:39:27;19.45;;;3.28;;
27959;SDS011;15299;48.184;-1.916;2022-09-09T01:42:03;15.27;;;2.75;;
27959;SDS011;15299;48.184;-1.916;2022-09-09T01:44:32;24.75;;;3.33;;
27959;SDS011;15299;48.184;-1.916;2022-09-09T01:47:01;11.52;;;2.60;;
27959;SDS011;15299;48.184;-1.916;2022-09-09T01:49:29;18.00;;;2.95;;
27959;SDS011;15299;48.184;-1.916;2022-09-09T01:51:59;11.48;;;2.60;;
27959;SDS011;15299;48.184;-1.916;2022-09-09T01:54:31;13.25;;;2.70;;
27959;SDS011;15299;48.184;-1.916;2022-09-09T01:57:08;13.63;;;2.55;;
27959;SDS011;15299;48.184;-1.916;2022-09-09T01:59:47;14.27;;;2.78;;
27959;SDS011;15299;48.184;-1.916;2022-09-09T02:02:19;13.75;;;3.05;;
27959;SDS011;15299;48.184;-1.916;2022-09-09T02:05:06;9.00;;;2.35;;
27959;SDS011;15299;48.184;-1.916;2022-09-09T02:07:38;17.15;;;3.95;;
27959;SDS011;15299;48.184;-1.916;2022-09-09T02:10:21;12.32;;;2.70;;
27959;SDS011;15299;48.184;-1.916;2022-09-09T02:13:04;12.60;;;2.63;;
27959;SDS011;15299;48.184;-1.916;2022-09-09T02:15:34;14.98;;;2.88;;
27959;SDS011;15299;48.184;-1.916;2022-09-09T02:18:03;12.15;;;2.63;;
27959;SDS011;15299;48.184;-1.916;2022-09-09T02:20:34;14.02;;;2.90;;
27959;SDS011;15299;48.184;-1.916;2022-09-09T02:23:02;14.45;;;2.60;;
27959;SDS011;15299;48.184;-1.916;2022-09-09T02:25:30;13.40;;;2.17;;
27959;SDS011;15299;48.184;-1.916;2022-09-09T02:28:09;17.55;;;2.75;;
27959;SDS011;15299;48.184;-1.916;2022-09-09T02:30:43;16.60;;;2.80;;
27959;SDS011;15299;48.184;-1.916;2022-09-09T02:33:16;18.50;;;2.45;;
27959;SDS011;15299;48.184;-1.916;2022-09-09T02:35:50;11.73;;;2.55;;
27959;SDS011;15299;48.184;-1.916;2022-09-09T02:38:21;16.83;;;3.05;;
27959;SDS011;15299;48.184;-1.916;2022-09-09T02:41:01;9.90;;;2.28;;
27959;SDS011;15299;48.184;-1.916;2022-09-09T02:43:32;15.98;;;2.72;;
27959;SDS011;15299;48.184;-1.916;2022-09-09T02:46:03;8.75;;;2.15;;
27959;SDS011;15299;48.184;-1.916;2022-09-09T02:48:39;11.95;;;2.38;;
27959;SDS011;15299;48.184;-1.916;2022-09-09T02:51:15;11.70;;;2.47;;
27959;SDS011;15299;48.184;-1.916;2022-09-09T02:53:47;11.30;;;2.50;;
27959;SDS011;15299;48.184;-1.916;2022-09-09T02:56:20;13.65;;;2.33;;
27959;SDS011;15299;48.184;-1.916;2022-09-09T02:58:52;13.90;;;3.05;;
27959;SDS011;15299;48.184;-1.916;2022-09-09T03:01:20;11.13;;;2.70;;
27959;SDS011;15299;48.184;-1.916;2022-09-09T03:03:47;13.77;;;2.58;;
27959;SDS011;15299;48.184;-1.916;2022-09-09T03:06:17;8.82;;;2.25;;
27959;SDS011;15299;48.184;-1.916;2022-09-09T03:08:54;14.38;;;3.90;;
27959;SDS011;15299;48.184;-1.916;2022-09-09T03:11:27;15.85;;;4.32;;
27959;SDS011;15299;48.184;-1.916;2022-09-09T03:13:56;17.48;;;2.72;;
27959;SDS011;15299;48.184;-1.916;2022-09-09T03:16:25;14.52;;;3.30;;
27959;SDS011;15299;48.184;-1.916;2022-09-09T03:18:53;13.90;;;2.67;;
27959;SDS011;15299;48.184;-1.916;2022-09-09T03:21:21;14.70;;;2.88;;
27959;SDS011;15299;48.184;-1.916;2022-09-09T03:23:50;24.10;;;4.00;;
27959;SDS011;15299;48.184;-1.916;2022-09-09T03:26:18;9.65;;;2.60;;
27959;SDS011;15299;48.184;-1.916;2022-09-09T03:28:46;11.25;;;3.42;;
27959;SDS011;15299;48.184;-1.916;2022-09-09T03:31:18;10.45;;;2.50;;
27959;SDS011;15299;48.184;-1.916;2022-09-09T03:33:47;13.57;;;3.13;;
27959;SDS011;15299;48.184;-1.916;2022-09-09T03:36:16;10.93;;;2.97;;
27959;SDS011;15299;48.184;-1.916;2022-09-09T03:38:43;18.25;;;4.85;;
27959;SDS011;15299;48.184;-1.916;2022-09-09T03:41:11;16.92;;;3.00;;
27959;SDS011;15299;48.184;-1.916;2022-09-09T03:43:39;17.95;;;3.47;;
27959;SDS011;15299;48.184;-1.916;2022-09-09T03:46:07;16.88;;;3.17;;
27959;SDS011;15299;48.184;-1.916;2022-09-09T03:48:36;12.98;;;3.30;;
27959;SDS011;15299;48.184;-1.916;2022-09-09T03:51:04;20.08;;;3.40;;
27959;SDS011;15299;48.184;-1.916;2022-09-09T03:53:33;17.83;;;3.35;;
27959;SDS011;15299;48.184;-1.916;2022-09-09T03:56:02;20.08;;;3.70;;
27959;SDS011;15299;48.184;-1.916;2022-09-09T03:58:32;18.98;;;2.58;;
27959;SDS011;15299;48.184;-1.916;2022-09-09T04:01:05;10.77;;;2.70;;
27959;SDS011;15299;48.184;-1.916;2022-09-09T04:03:34;14.32;;;3.38;;
27959;SDS011;15299;48.184;-1.916;2022-09-09T04:06:04;13.27;;;3.10;;
27959;SDS011;15299;48.184;-1.916;2022-09-09T04:08:32;20.27;;;2.97;;
27959;SDS011;15299;48.184;-1.916;2022-09-09T04:11:01;12.52;;;2.78;;
27959;SDS011;15299;48.184;-1.916;2022-09-09T04:13:32;16.15;;;2.42;;
27959;SDS011;15299;48.184;-1.916;2022-09-09T04:16:01;15.85;;;3.17;;
27959;SDS011;15299;48.184;-1.916;2022-09-09T04:18:30;16.58;;;2.83;;
27959;SDS011;15299;48.184;-1.916;2022-09-09T04:20:59;18.08;;;2.80;;
27959;SDS011;15299;48.184;-1.916;2022-09-09T04:23:30;14.48;;;3.88;;
27959;SDS011;15299;48.184;-1.916;2022-09-09T04:26:00;12.10;;;3.40;;
27959;SDS011;15299;48.184;-1.916;2022-09-09T04:28:28;20.65;;;4.28;;
27959;SDS011;15299;48.184;-1.916;2022-09-09T04:30:57;18.95;;;3.53;;
27959;SDS011;15299;48.184;-1.916;2022-09-09T04:33:32;15.32;;;3.13;;
27959;SDS011;15299;48.184;-1.916;2022-09-09T04:36:00;20.45;;;3.33;;
27959;SDS011;15299;48.184;-1.916;2022-09-09T04:38:28;16.13;;;2.95;;
27959;SDS011;15299;48.184;-1.916;2022-09-09T04:40:58;14.05;;;3.40;;
27959;SDS011;15299;48.184;-1.916;2022-09-09T04:43:27;16.73;;;4.05;;
27959;SDS011;15299;48.184;-1.916;2022-09-09T04:45:56;13.55;;;3.53;;
27959;SDS011;15299;48.184;-1.916;2022-09-09T04:48:24;18.73;;;3.72;;
27959;SDS011;15299;48.184;-1.916;2022-09-09T04:50:56;18.73;;;3.42;;
27959;SDS011;15299;48.184;-1.916;2022-09-09T04:53:24;18.33;;;3.17;;
27959;SDS011;15299;48.184;-1.916;2022-09-09T04:55:53;15.18;;;3.70;;
27959;SDS011;15299;48.184;-1.916;2022-09-09T04:58:30;20.45;;;3.40;;
27959;SDS011;15299;48.184;-1.916;2022-09-09T05:01:05;21.05;;;4.18;;
27959;SDS011;15299;48.184;-1.916;2022-09-09T05:03:33;19.23;;;3.55;;
27959;SDS011;15299;48.184;-1.916;2022-09-09T05:06:02;12.88;;;3.33;;
27959;SDS011;15299;48.184;-1.916;2022-09-09T05:08:30;17.33;;;4.85;;
27959;SDS011;15299;48.184;-1.916;2022-09-09T05:10:58;11.40;;;3.30;;
27959;SDS011;15299;48.184;-1.916;2022-09-09T05:13:26;21.27;;;3.13;;
27959;SDS011;15299;48.184;-1.916;2022-09-09T05:15:55;18.95;;;3.00;;
27959;SDS011;15299;48.184;-1.916;2022-09-09T05:18:22;20.48;;;3.25;;
27959;SDS011;15299;48.184;-1.916;2022-09-09T05:20:50;19.20;;;3.88;;
27959;SDS011;15299;48.184;-1.916;2022-09-09T05:23:17;19.23;;;3.42;;
27959;SDS011;15299;48.184;-1.916;2022-09-09T05:25:53;13.60;;;3.13;;
27959;SDS011;15299;48.184;-1.916;2022-09-09T05:28:23;21.42;;;3.95;;
27959;SDS011;15299;48.184;-1.916;2022-09-09T05:31:04;18.45;;;3.40;;
27959;SDS011;15299;48.184;-1.916;2022-09-09T05:33:34;25.52;;;3.78;;
27959;SDS011;15299;48.184;-1.916;2022-09-09T05:36:04;13.77;;;3.60;;
27959;SDS011;15299;48.184;-1.916;2022-09-09T05:38:34;20.23;;;4.05;;
27959;SDS011;15299;48.184;-1.916;2022-09-09T05:41:02;14.18;;;2.83;;
27959;SDS011;15299;48.184;-1.916;2022-09-09T05:43:30;13.95;;;3.95;;
27959;SDS011;15299;48.184;-1.916;2022-09-09T05:45:58;17.52;;;3.20;;
27959;SDS011;15299;48.184;-1.916;2022-09-09T05:48:30;22.90;;;3.60;;
27959;SDS011;15299;48.184;-1.916;2022-09-09T05:50:58;24.45;;;3.95;;
27959;SDS011;15299;48.184;-1.916;2022-09-09T05:53:27;27.67;;;4.28;;
27959;SDS011;15299;48.184;-1.916;2022-09-09T05:55:58;14.48;;;3.75;;
27959;SDS011;15299;48.184;-1.916;2022-09-09T05:58:27;22.73;;;4.28;;
27959;SDS011;15299;48.184;-1.916;2022-09-09T06:01:00;21.50;;;3.92;;
27959;SDS011;15299;48.184;-1.916;2022-09-09T06:03:27;16.50;;;4.05;;
27959;SDS011;15299;48.184;-1.916;2022-09-09T06:06:00;17.80;;;3.65;;
27959;SDS011;15299;48.184;-1.916;2022-09-09T06:08:30;20.60;;;3.40;;
27959;SDS011;15299;48.184;-1.916;2022-09-09T06:11:01;20.08;;;4.40;;
27959;SDS011;15299;48.184;-1.916;2022-09-09T06:13:29;20.27;;;4.47;;
27959;SDS011;15299;48.184;-1.916;2022-09-09T06:15:57;14.48;;;3.00;;
27959;SDS011;15299;48.184;-1.916;2022-09-09T06:18:26;18.23;;;3.70;;
27959;SDS011;15299;48.184;-1.916;2022-09-09T06:20:56;16.13;;;3.78;;
27959;SDS011;15299;48.184;-1.916;2022-09-09T06:23:26;21.25;;;4.00;;
27959;SDS011;15299;48.184;-1.916;2022-09-09T06:26:00;21.77;;;4.25;;
27959;SDS011;15299;48.184;-1.916;2022-09-09T06:28:28;16.38;;;3.80;;
27959;SDS011;15299;48.184;-1.916;2022-09-09T06:30:59;23.77;;;3.97;;
27959;SDS011;15299;48.184;-1.916;2022-09-09T06:33:30;19.02;;;3.38;;
27959;SDS011;15299;48.184;-1.916;2022-09-09T06:36:00;24.65;;;3.78;;
27959;SDS011;15299;48.184;-1.916;2022-09-09T06:38:30;17.65;;;3.63;;
27959;SDS011;15299;48.184;-1.916;2022-09-09T06:40:59;13.43;;;3.63;;
27959;SDS011;15299;48.184;-1.916;2022-09-09T06:43:28;21.67;;;4.40;;
27959;SDS011;15299;48.184;-1.916;2022-09-09T06:45:56;23.95;;;2.92;;
27959;SDS011;15299;48.184;-1.916;2022-09-09T06:48:24;18.85;;;3.05;;
27959;SDS011;15299;48.184;-1.916;2022-09-09T06:51:00;14.48;;;2.53;;
27959;SDS011;15299;48.184;-1.916;2022-09-09T06:53:28;17.27;;;3.75;;
27959;SDS011;15299;48.184;-1.916;2022-09-09T06:56:00;23.55;;;3.65;;
27959;SDS011;15299;48.184;-1.916;2022-09-09T06:58:29;15.07;;;3.17;;
27959;SDS011;15299;48.184;-1.916;2022-09-09T07:01:03;17.45;;;3.15;;
27959;SDS011;15299;48.184;-1.916;2022-09-09T07:03:31;15.80;;;3.33;;
27959;SDS011;15299;48.184;-1.916;2022-09-09T07:06:00;15.48;;;2.83;;
27959;SDS011;15299;48.184;-1.916;2022-09-09T07:08:29;12.50;;;2.85;;
27959;SDS011;15299;48.184;-1.916;2022-09-09T07:11:03;15.95;;;3.00;;
27959;SDS011;15299;48.184;-1.916;2022-09-09T07:13:33;11.63;;;2.58;;
27959;SDS011;15299;48.184;-1.916;2022-09-09T07:16:03;17.30;;;2.95;;
27959;SDS011;15299;48.184;-1.916;2022-09-09T07:18:31;23.13;;;3.70;;
27959;SDS011;15299;48.184;-1.916;2022-09-09T07:20:59;19.13;;;3.22;;
27959;SDS011;15299;48.184;-1.916;2022-09-09T07:23:28;23.65;;;3.53;;
27959;SDS011;15299;48.184;-1.916;2022-09-09T07:25:56;15.43;;;2.85;;
27959;SDS011;15299;48.184;-1.916;2022-09-09T07:28:25;18.20;;;2.65;;
27959;SDS011;15299;48.184;-1.916;2022-09-09T07:30:54;18.58;;;2.63;;
27959;SDS011;15299;48.184;-1.916;2022-09-09T07:33:22;12.77;;;2.80;;
27959;SDS011;15299;48.184;-1.916;2022-09-09T07:35:50;12.85;;;2.83;;
27959;SDS011;15299;48.184;-1.916;2022-09-09T07:38:18;16.70;;;3.10;;
27959;SDS011;15299;48.184;-1.916;2022-09-09T07:40:48;20.38;;;2.30;;
27959;SDS011;15299;48.184;-1.916;2022-09-09T07:43:18;21.25;;;3.50;;
27959;SDS011;15299;48.184;-1.916;2022-09-09T07:45:48;11.07;;;2.40;;
27959;SDS011;15299;48.184;-1.916;2022-09-09T07:48:24;12.82;;;2.22;;
27959;SDS011;15299;48.184;-1.916;2022-09-09T07:50:52;19.65;;;2.83;;
27959;SDS011;15299;48.184;-1.916;2022-09-09T07:53:20;12.95;;;3.13;;
27959;SDS011;15299;48.184;-1.916;2022-09-09T07:55:48;20.77;;;2.90;;
27959;SDS011;15299;48.184;-1.916;2022-09-09T07:58:16;15.70;;;2.47;;
27959;SDS011;15299;48.184;-1.916;2022-09-09T08:00:43;13.18;;;2.40;;
27959;SDS011;15299;48.184;-1.916;2022-09-09T08:03:12;11.00;;;2.38;;
27959;SDS011;15299;48.184;-1.916;2022-09-09T08:05:40;15.13;;;2.88;;
27959;SDS011;15299;48.184;-1.916;2022-09-09T08:08:08;16.25;;;3.25;;
27959;SDS011;15299;48.184;-1.916;2022-09-09T08:10:36;21.70;;;3.00;;
27959;SDS011;15299;48.184;-1.916;2022-09-09T08:13:03;18.17;;;2.75;;
27959;SDS011;15299;48.184;-1.916;2022-09-09T08:15:31;15.75;;;3.22;;
27959;SDS011;15299;48.184;-1.916;2022-09-09T08:17:59;13.00;;;2.72;;
27959;SDS011;15299;48.184;-1.916;2022-09-09T08:20:29;16.25;;;2.67;;
27959;SDS011;15299;48.184;-1.916;2022-09-09T08:22:56;14.82;;;2.88;;
27959;SDS011;15299;48.184;-1.916;2022-09-09T08:25:24;16.50;;;2.92;;
27959;SDS011;15299;48.184;-1.916;2022-09-09T08:27:52;12.60;;;3.22;;
27959;SDS011;15299;48.184;-1.916;2022-09-09T08:30:21;18.80;;;3.05;;
27959;SDS011;15299;48.184;-1.916;2022-09-09T08:32:48;12.27;;;2.50;;
27959;SDS011;15299;48.184;-1.916;2022-09-09T08:35:17;12.20;;;2.72;;
27959;SDS011;15299;48.184;-1.916;2022-09-09T08:37:48;16.02;;;2.78;;
27959;SDS011;15299;48.184;-1.916;2022-09-09T08:40:18;17.17;;;2.40;;
27959;SDS011;15299;48.184;-1.916;2022-09-09T08:45:22;15.45;;;2.70;;
27959;SDS011;15299;48.184;-1.916;2022-09-09T08:47:55;21.20;;;3.45;;
27959;SDS011;15299;48.184;-1.916;2022-09-09T08:50:30;16.30;;;2.90;;
27959;SDS011;15299;48.184;-1.916;2022-09-09T08:53:05;18.90;;;3.90;;
27959;SDS011;15299;48.184;-1.916;2022-09-09T08:58:06;13.55;;;2.50;;
27959;SDS011;15299;48.184;-1.916;2022-09-09T09:00:40;10.73;;;2.10;;
27959;SDS011;15299;48.184;-1.916;2022-09-09T09:03:14;15.98;;;2.20;;
27959;SDS011;15299;48.184;-1.916;2022-09-09T09:05:46;7.25;;;2.35;;
27959;SDS011;15299;48.184;-1.916;2022-09-09T09:08:18;14.40;;;2.53;;
27959;SDS011;15299;48.184;-1.916;2022-09-09T09:10:50;16.80;;;2.22;;
27959;SDS011;15299;48.184;-1.916;2022-09-09T09:13:23;22.90;;;3.08;;
27959;SDS011;15299;48.184;-1.916;2022-09-09T09:15:58;13.32;;;2.75;;
27959;SDS011;15299;48.184;-1.916;2022-09-09T09:18:28;10.40;;;2.67;;
27959;SDS011;15299;48.184;-1.916;2022-09-09T09:20:57;12.85;;;2.38;;
27959;SDS011;15299;48.184;-1.916;2022-09-09T09:23:40;16.30;;;2.20;;
27959;SDS011;15299;48.184;-1.916;2022-09-09T09:26:09;13.90;;;3.10;;
27959;SDS011;15299;48.184;-1.916;2022-09-09T09:28:38;13.82;;;2.33;;
27959;SDS011;15299;48.184;-1.916;2022-09-09T09:31:12;15.15;;;2.58;;
27959;SDS011;15299;48.184;-1.916;2022-09-09T09:33:45;15.48;;;2.38;;
27959;SDS011;15299;48.184;-1.916;2022-09-09T09:36:16;13.48;;;3.33;;
27959;SDS011;15299;48.184;-1.916;2022-09-09T09:38:54;16.67;;;2.58;;
27959;SDS011;15299;48.184;-1.916;2022-09-09T09:41:30;15.23;;;2.10;;
27959;SDS011;15299;48.184;-1.916;2022-09-09T09:43:58;17.52;;;2.38;;
27959;SDS011;15299;48.184;-1.916;2022-09-09T09:46:28;13.30;;;2.95;;
27959;SDS011;15299;48.184;-1.916;2022-09-09T09:49:05;13.93;;;1.90;;
27959;SDS011;15299;48.184;-1.916;2022-09-09T09:51:33;8.70;;;2.28;;
27959;SDS011;15299;48.184;-1.916;2022-09-09T09:54:17;14.38;;;2.10;;
27959;SDS011;15299;48.184;-1.916;2022-09-09T09:56:51;10.18;;;1.95;;
27959;SDS011;15299;48.184;-1.916;2022-09-09T09:59:20;14.32;;;2.35;;
27959;SDS011;15299;48.184;-1.916;2022-09-09T10:01:48;7.13;;;2.25;;
27959;SDS011;15299;48.184;-1.916;2022-09-09T10:04:17;32.03;;;5.25;;
27959;SDS011;15299;48.184;-1.916;2022-09-09T10:06:46;10.07;;;2.45;;
27959;SDS011;15299;48.184;-1.916;2022-09-09T10:09:21;13.43;;;2.45;;
27959;SDS011;15299;48.184;-1.916;2022-09-09T10:11:51;17.02;;;2.10;;
27959;SDS011;15299;48.184;-1.916;2022-09-09T10:14:21;13.27;;;2.90;;
27959;SDS011;15299;48.184;-1.916;2022-09-09T10:17:01;12.07;;;2.05;;
27959;SDS011;15299;48.184;-1.916;2022-09-09T10:19:32;14.43;;;2.60;;
27959;SDS011;15299;48.184;-1.916;2022-09-09T10:25:01;11.73;;;2.13;;
27959;SDS011;15299;48.184;-1.916;2022-09-09T10:27:33;13.38;;;2.35;;
27959;SDS011;15299;48.184;-1.916;2022-09-09T10:30:09;14.35;;;3.08;;
27959;SDS011;15299;48.184;-1.916;2022-09-09T10:32:41;14.20;;;2.15;;
27959;SDS011;15299;48.184;-1.916;2022-09-09T10:35:09;9.43;;;2.40;;
27959;SDS011;15299;48.184;-1.916;2022-09-09T10:37:42;14.25;;;2.00;;
27959;SDS011;15299;48.184;-1.916;2022-09-09T10:40:20;4.53;;;1.25;;
27959;SDS011;15299;48.184;-1.916;2022-09-09T10:42:51;6.22;;;1.40;;
27959;SDS011;15299;48.184;-1.916;2022-09-09T10:45:21;10.60;;;1.90;;
27959;SDS011;15299;48.184;-1.916;2022-09-09T10:47:54;10.80;;;1.90;;
27959;SDS011;15299;48.184;-1.916;2022-09-09T10:50:40;14.05;;;2.30;;
27959;SDS011;15299;48.184;-1.916;2022-09-09T10:53:12;7.65;;;1.50;;
27959;SDS011;15299;48.184;-1.916;2022-09-09T10:55:44;10.52;;;1.75;;
27959;SDS011;15299;48.184;-1.916;2022-09-09T10:58:13;9.93;;;2.58;;
27959;SDS011;15299;48.184;-1.916;2022-09-09T11:00:43;9.85;;;2.67;;
27959;SDS011;15299;48.184;-1.916;2022-09-09T11:03:13;9.20;;;2.35;;
27959;SDS011;15299;48.184;-1.916;2022-09-09T11:05:45;4.70;;;1.63;;
27959;SDS011;15299;48.184;-1.916;2022-09-09T11:08:15;7.07;;;2.10;;
27959;SDS011;15299;48.184;-1.916;2022-09-09T11:10:48;13.52;;;2.47;;
27959;SDS011;15299;48.184;-1.916;2022-09-09T11:13:21;10.90;;;1.65;;
27959;SDS011;15299;48.184;-1.916;2022-09-09T11:15:52;7.78;;;2.30;;
27959;SDS011;15299;48.184;-1.916;2022-09-09T11:18:20;5.22;;;1.88;;
27959;SDS011;15299;48.184;-1.916;2022-09-09T11:20:53;9.00;;;2.15;;
27959;SDS011;15299;48.184;-1.916;2022-09-09T11:23:24;14.98;;;2.83;;
27959;SDS011;15299;48.184;-1.916;2022-09-09T11:25:57;9.82;;;1.50;;
27959;SDS011;15299;48.184;-1.916;2022-09-09T11:31:00;4.90;;;1.17;;
27959;SDS011;15299;48.184;-1.916;2022-09-09T11:33:41;7.65;;;1.60;;
27959;SDS011;15299;48.184;-1.916;2022-09-09T11:36:24;7.50;;;2.15;;
27959;SDS011;15299;48.184;-1.916;2022-09-09T11:38:56;5.65;;;1.67;;
27959;SDS011;15299;48.184;-1.916;2022-09-09T11:41:33;6.00;;;1.08;;
27959;SDS011;15299;48.184;-1.916;2022-09-09T11:44:08;5.78;;;1.30;;
27959;SDS011;15299;48.184;-1.916;2022-09-09T11:46:37;7.47;;;1.20;;
27959;SDS011;15299;48.184;-1.916;2022-09-09T11:49:05;8.43;;;1.50;;
27959;SDS011;15299;48.184;-1.916;2022-09-09T11:51:33;4.78;;;1.63;;
27959;SDS011;15299;48.184;-1.916;2022-09-09T11:54:02;3.88;;;1.45;;
27959;SDS011;15299;48.184;-1.916;2022-09-09T11:56:32;4.63;;;1.15;;
27959;SDS011;15299;48.184;-1.916;2022-09-09T11:59:01;7.53;;;1.73;;
27959;SDS011;15299;48.184;-1.916;2022-09-09T12:01:35;7.15;;;1.48;;
27959;SDS011;15299;48.184;-1.916;2022-09-09T12:06:59;4.45;;;1.48;;
27959;SDS011;15299;48.184;-1.916;2022-09-09T12:09:32;4.15;;;1.15;;
27959;SDS011;15299;48.184;-1.916;2022-09-09T12:12:17;6.68;;;1.33;;
27959;SDS011;15299;48.184;-1.916;2022-09-09T12:14:55;7.32;;;2.28;;
27959;SDS011;15299;48.184;-1.916;2022-09-09T12:17:23;9.45;;;2.53;;
27959;SDS011;15299;48.184;-1.916;2022-09-09T12:19:59;8.05;;;2.45;;
27959;SDS011;15299;48.184;-1.916;2022-09-09T12:22:32;4.15;;;1.25;;
27959;SDS011;15299;48.184;-1.916;2022-09-09T12:25:05;7.75;;;1.40;;
27959;SDS011;15299;48.184;-1.916;2022-09-09T12:27:40;9.88;;;2.00;;
27959;SDS011;15299;48.184;-1.916;2022-09-09T12:30:11;5.22;;;1.40;;
27959;SDS011;15299;48.184;-1.916;2022-09-09T12:32:39;10.77;;;2.38;;
27959;SDS011;15299;48.184;-1.916;2022-09-09T12:35:10;9.02;;;1.40;;
27959;SDS011;15299;48.184;-1.916;2022-09-09T12:37:39;4.50;;;1.30;;
27959;SDS011;15299;48.184;-1.916;2022-09-09T12:40:18;6.70;;;1.40;;
27959;SDS011;15299;48.184;-1.916;2022-09-09T12:42:48;10.25;;;1.83;;
27959;SDS011;15299;48.184;-1.916;2022-09-09T12:45:16;7.38;;;1.50;;
27959;SDS011;15299;48.184;-1.916;2022-09-09T12:47:44;6.97;;;1.55;;
27959;SDS011;15299;48.184;-1.916;2022-09-09T12:50:17;4.20;;;1.10;;
27959;SDS011;15299;48.184;-1.916;2022-09-09T12:52:46;7.32;;;1.70;;
27959;SDS011;15299;48.184;-1.916;2022-09-09T12:55:16;9.57;;;1.75;;
27959;SDS011;15299;48.184;-1.916;2022-09-09T12:57:45;10.13;;;1.55;;
27959;SDS011;15299;48.184;-1.916;2022-09-09T13:00:17;9.10;;;1.52;;
27959;SDS011;15299;48.184;-1.916;2022-09-09T13:02:50;7.30;;;1.70;;
27959;SDS011;15299;48.184;-1.916;2022-09-09T13:05:19;6.93;;;1.63;;
27959;SDS011;15299;48.184;-1.916;2022-09-09T13:07:47;8.13;;;1.55;;
27959;SDS011;15299;48.184;-1.916;2022-09-09T13:10:15;11.68;;;1.88;;
27959;SDS011;15299;48.184;-1.916;2022-09-09T13:12:47;10.02;;;2.85;;
27959;SDS011;15299;48.184;-1.916;2022-09-09T13:15:19;16.13;;;2.38;;
27959;SDS011;15299;48.184;-1.916;2022-09-09T13:17:51;8.50;;;1.65;;
27959;SDS011;15299;48.184;-1.916;2022-09-09T13:20:20;18.07;;;2.30;;
27959;SDS011;15299;48.184;-1.916;2022-09-09T13:22:48;6.10;;;1.83;;
27959;SDS011;15299;48.184;-1.916;2022-09-09T13:25:19;7.15;;;1.70;;
27959;SDS011;15299;48.184;-1.916;2022-09-09T13:27:54;14.80;;;1.90;;
27959;SDS011;15299;48.184;-1.916;2022-09-09T13:30:24;7.60;;;1.80;;
27959;SDS011;15299;48.184;-1.916;2022-09-09T13:32:59;6.05;;;1.50;;
27959;SDS011;15299;48.184;-1.916;2022-09-09T13:35:27;7.72;;;1.60;;
27959;SDS011;15299;48.184;-1.916;2022-09-09T13:37:55;8.43;;;1.42;;
27959;SDS011;15299;48.184;-1.916;2022-09-09T13:40:23;6.57;;;1.35;;
27959;SDS011;15299;48.184;-1.916;2022-09-09T13:42:51;4.18;;;1.40;;
27959;SDS011;15299;48.184;-1.916;2022-09-09T13:45:20;7.68;;;2.08;;
27959;SDS011;15299;48.184;-1.916;2022-09-09T13:47:53;14.60;;;3.35;;
27959;SDS011;15299;48.184;-1.916;2022-09-09T13:50:22;7.20;;;2.83;;
27959;SDS011;15299;48.184;-1.916;2022-09-09T13:52:50;6.47;;;2.30;;
27959;SDS011;15299;48.184;-1.916;2022-09-09T13:55:19;9.27;;;3.58;;
27959;SDS011;15299;48.184;-1.916;2022-09-09T13:57:51;12.88;;;3.42;;
27959;SDS011;15299;48.184;-1.916;2022-09-09T14:00:19;8.02;;;3.22;;
27959;SDS011;15299;48.184;-1.916;2022-09-09T14:02:47;5.55;;;1.77;;
27959;SDS011;15299;48.184;-1.916;2022-09-09T14:05:18;2.53;;;1.33;;
27959;SDS011;15299;48.184;-1.916;2022-09-09T14:07:47;5.90;;;1.67;;
27959;SDS011;15299;48.184;-1.916;2022-09-09T14:10:15;5.30;;;1.33;;
27959;SDS011;15299;48.184;-1.916;2022-09-09T14:12:43;2.90;;;1.10;;
27959;SDS011;15299;48.184;-1.916;2022-09-09T14:15:11;6.82;;;2.10;;
27959;SDS011;15299;48.184;-1.916;2022-09-09T14:17:39;9.88;;;3.55;;
27959;SDS011;15299;48.184;-1.916;2022-09-09T14:20:07;9.65;;;3.55;;
27959;SDS011;15299;48.184;-1.916;2022-09-09T14:22:38;10.70;;;3.90;;
27959;SDS011;15299;48.184;-1.916;2022-09-09T14:25:09;7.60;;;2.22;;
27959;SDS011;15299;48.184;-1.916;2022-09-09T14:27:40;5.53;;;1.50;;
27959;SDS011;15299;48.184;-1.916;2022-09-09T14:30:08;12.68;;;1.60;;
27959;SDS011;15299;48.184;-1.916;2022-09-09T14:32:36;3.67;;;1.40;;
27959;SDS011;15299;48.184;-1.916;2022-09-09T14:35:04;5.03;;;1.35;;
27959;SDS011;15299;48.184;-1.916;2022-09-09T14:37:32;3.97;;;1.25;;
27959;SDS011;15299;48.184;-1.916;2022-09-09T14:40:01;3.33;;;1.25;;
27959;SDS011;15299;48.184;-1.916;2022-09-09T14:42:29;6.30;;;1.50;;
27959;SDS011;15299;48.184;-1.916;2022-09-09T14:44:56;5.95;;;1.70;;
27959;SDS011;15299;48.184;-1.916;2022-09-09T14:47:24;5.38;;;1.08;;
27959;SDS011;15299;48.184;-1.916;2022-09-09T14:49:52;6.40;;;1.88;;
27959;SDS011;15299;48.184;-1.916;2022-09-09T14:52:20;6.05;;;1.38;;
27959;SDS011;15299;48.184;-1.916;2022-09-09T14:54:47;7.30;;;1.88;;
27959;SDS011;15299;48.184;-1.916;2022-09-09T14:57:17;6.78;;;1.60;;
27959;SDS011;15299;48.184;-1.916;2022-09-09T14:59:44;7.40;;;1.83;;
27959;SDS011;15299;48.184;-1.916;2022-09-09T15:02:12;7.75;;;1.80;;